Terminal Aerodrome Forecast
Issued by NWS Mt. Holly, NJ

Home | Current Version | Previous Version | Text Only | Print | Product List | Glossary On
Versions: 1 2 3 4 5 6 7 8 9 10 11 12 13 14 15
592
FTUS41 KPHI 242321
TAFILG
TAF
KILG 242321Z 2500/2524 16007KT P6SM SKC
     FM250100 VRB02KT P6SM SKC
     FM251600 22006KT P6SM SCT250
     FM251900 25007KT P6SM SCT050 BKN250
     FM252200 27005KT P6SM BKN050 OVC100=

USA.gov is the U.S. government's official web portal to all federal, state and local government web resources and services.